Time;durP1;ratioP1;P1;durP2;ratioP2;P2;SDS_P1;SDS_P2;PMS_P1;PMS_P2;Temp;Humidity;BMP_temperature;BMP_pressure;BME280_temperature;BME280_humidity;BME280_pressure;Samples;Min_cycle;Max_cycle;Signal;HPM_P1;HPM_P2
2023/05/23 00:01:13;;;;;;;13.88;8.90;;;14.80;99.90;;;;;;7311597;32;20116;-58
2023/05/23 00:05:16;;;;;;;11.70;8.55;;;14.90;99.90;;;;;;7325663;32;20302;-56
2023/05/23 00:09:18;;;;;;;9.30;7.28;;;15.00;99.90;;;;;;7316565;32;20257;-56
2023/05/23 00:13:20;;;;;;;9.50;8.52;;;15.00;99.90;;;;;;7329597;32;20537;-57
2023/05/23 00:17:24;;;;;;;9.13;7.95;;;15.00;99.90;;;;;;7326132;32;20132;-56
2023/05/23 00:21:26;;;;;;;10.48;7.87;;;15.00;99.90;;;;;;7327182;32;20225;-56
2023/05/23 00:25:32;;;;;;;11.38;8.18;;;15.00;99.90;;;;;;7325458;32;20170;-56
2023/05/23 00:29:34;;;;;;;9.55;7.57;;;15.00;99.90;;;;;;7330047;32;20209;-57
2023/05/23 00:33:36;;;;;;;12.93;7.53;;;15.00;99.90;;;;;;7326503;32;20186;-56
2023/05/23 00:37:39;;;;;;;8.50;6.20;;;15.00;99.90;;;;;;7324704;32;20122;-56
2023/05/23 00:41:41;;;;;;;6.70;4.82;;;15.00;99.90;;;;;;7327503;32;20229;-58
2023/05/23 00:45:43;;;;;;;8.38;4.65;;;15.10;99.90;;;;;;7326211;32;20175;-56
2023/05/23 00:49:45;;;;;;;5.32;4.30;;;15.10;99.90;;;;;;7328623;32;20354;-57
2023/05/23 00:53:48;;;;;;;5.45;4.37;;;14.90;99.90;;;;;;7324951;32;20099;-56
2023/05/23 00:57:54;;;;;;;4.82;4.20;;;14.90;99.90;;;;;;7324738;32;20502;-56
2023/05/23 01:01:57;;;;;;;9.23;4.18;;;14.90;99.90;;;;;;7327746;32;20617;-56
2023/05/23 01:05:58;;;;;;;6.43;4.00;;;14.90;99.90;;;;;;7329066;32;20802;-57
2023/05/23 01:10:01;;;;;;;5.00;3.72;;;14.90;99.90;;;;;;7334765;32;20107;-56
2023/05/23 01:14:17;;;;;;;5.85;3.97;;;14.90;99.90;;;;;;7340160;32;20095;-57
2023/05/23 01:18:42;;;;;;;5.45;3.78;;;14.80;99.90;;;;;;7334245;32;20259;-57
2023/05/23 01:22:59;;;;;;;5.50;3.90;;;14.90;99.90;;;;;;7323259;32;20316;-56
2023/05/23 01:27:28;;;;;;;9.50;4.50;;;14.90;99.90;;;;;;7329595;32;20526;-57
2023/05/23 01:31:32;;;;;;;6.18;4.03;;;14.90;99.90;;;;;;7332918;32;20248;-56
2023/05/23 01:35:35;;;;;;;8.15;4.30;;;14.80;99.90;;;;;;7331686;32;20130;-56
2023/05/23 01:39:37;;;;;;;6.37;4.10;;;14.80;99.90;;;;;;7332138;32;20130;-56
2023/05/23 01:43:39;;;;;;;4.80;3.87;;;14.90;99.90;;;;;;7328184;32;20111;-56
2023/05/23 01:47:42;;;;;;;4.55;3.72;;;14.80;99.90;;;;;;7333083;32;20226;-57
2023/05/23 01:51:45;;;;;;;7.43;3.65;;;14.90;99.90;;;;;;7331681;32;20154;-57
2023/05/23 01:55:47;;;;;;;6.65;4.25;;;14.90;99.90;;;;;;7326415;32;20205;-56
2023/05/23 01:59:49;;;;;;;7.97;3.72;;;14.90;99.90;;;;;;7329985;32;20168;-57
2023/05/23 02:03:51;;;;;;;5.43;4.07;;;14.80;99.90;;;;;;7329414;32;20123;-58
2023/05/23 02:07:53;;;;;;;5.60;3.97;;;14.80;99.90;;;;;;7338849;32;20184;-56
2023/05/23 02:11:55;;;;;;;5.62;4.40;;;14.80;99.90;;;;;;7316477;32;20611;-57
2023/05/23 02:15:57;;;;;;;7.30;4.65;;;14.80;99.90;;;;;;7328495;32;20119;-56
2023/05/23 02:19:58;;;;;;;7.35;4.82;;;14.80;99.90;;;;;;7336661;32;20542;-57
2023/05/23 02:24:00;;;;;;;9.70;5.12;;;14.80;99.90;;;;;;7315992;32;20217;-56
2023/05/23 02:28:02;;;;;;;6.30;4.97;;;14.80;99.90;;;;;;7332486;32;20235;-57
2023/05/23 02:32:04;;;;;;;7.85;5.05;;;14.90;99.90;;;;;;7324221;32;20114;-56
2023/05/23 02:36:06;;;;;;;8.70;4.93;;;14.90;99.90;;;;;;7335540;32;20099;-56
2023/05/23 02:40:08;;;;;;;6.60;5.12;;;14.90;99.90;;;;;;7338838;32;20114;-55
2023/05/23 02:44:10;;;;;;;6.82;4.70;;;14.80;99.90;;;;;;7336015;32;20112;-56
2023/05/23 02:48:12;;;;;;;8.60;4.90;;;14.80;99.90;;;;;;7331096;32;20141;-56
2023/05/23 02:52:13;;;;;;;6.55;4.43;;;14.80;99.90;;;;;;7320548;32;20380;-56
2023/05/23 02:56:15;;;;;;;7.40;4.37;;;14.80;99.90;;;;;;7333052;32;20182;-57
2023/05/23 03:00:17;;;;;;;5.90;4.40;;;14.80;99.90;;;;;;7327290;32;20099;-58
2023/05/23 03:04:20;;;;;;;6.97;3.95;;;14.80;99.90;;;;;;7331876;32;20131;-56
2023/05/23 03:08:22;;;;;;;9.63;5.05;;;14.70;99.90;;;;;;7326629;32;20238;-57
2023/05/23 03:12:23;;;;;;;7.00;4.80;;;14.70;99.90;;;;;;7326481;32;20213;-57
2023/05/23 03:16:25;;;;;;;8.95;5.43;;;14.80;99.90;;;;;;7337236;32;20212;-57
2023/05/23 03:20:27;;;;;;;10.52;6.28;;;14.80;99.90;;;;;;7328981;32;20135;-57
2023/05/23 03:24:30;;;;;;;10.70;6.40;;;14.70;99.90;;;;;;7325927;32;20126;-56
2023/05/23 03:28:32;;;;;;;11.20;6.03;;;14.80;99.90;;;;;;7332055;32;20122;-58
2023/05/23 03:32:34;;;;;;;12.15;7.32;;;14.70;99.90;;;;;;7311538;32;20151;-57
2023/05/23 03:36:38;;;;;;;9.25;5.85;;;14.70;99.90;;;;;;7331373;32;20262;-55
2023/05/23 03:40:39;;;;;;;9.05;5.93;;;14.70;99.90;;;;;;7333402;32;20230;-55
2023/05/23 03:44:41;;;;;;;10.50;6.03;;;14.60;99.90;;;;;;7331473;32;20643;-58
2023/05/23 03:48:43;;;;;;;10.32;5.70;;;14.60;99.90;;;;;;7338965;32;20114;-56
2023/05/23 03:52:45;;;;;;;8.25;4.95;;;14.60;99.90;;;;;;7333271;32;20186;-57
2023/05/23 03:56:47;;;;;;;8.30;4.72;;;14.60;99.90;;;;;;7335859;32;20206;-56
2023/05/23 04:00:49;;;;;;;10.02;5.85;;;14.50;99.90;;;;;;7333624;32;20107;-57
2023/05/23 04:04:52;;;;;;;8.05;5.00;;;14.50;99.90;;;;;;7330764;32;20157;-56
2023/05/23 04:08:54;;;;;;;10.13;5.53;;;14.50;99.90;;;;;;7331927;32;20103;-57
2023/05/23 04:12:57;;;;;;;8.88;5.10;;;14.50;99.90;;;;;;7329133;32;20249;-57
2023/05/23 04:16:59;;;;;;;9.25;4.85;;;14.50;99.90;;;;;;7329968;32;20199;-57
2023/05/23 04:21:01;;;;;;;10.15;5.62;;;14.50;99.90;;;;;;7331834;32;20280;-57
2023/05/23 04:25:05;;;;;;;7.60;5.00;;;14.50;99.90;;;;;;7318384;32;20344;-56
2023/05/23 04:29:06;;;;;;;8.05;5.53;;;14.50;99.90;;;;;;7324400;32;20206;-57
2023/05/23 04:33:08;;;;;;;10.80;5.32;;;14.50;99.90;;;;;;7326010;32;20199;-56
2023/05/23 04:37:10;;;;;;;8.88;5.28;;;14.50;99.90;;;;;;7336051;32;20518;-56
2023/05/23 04:41:15;;;;;;;9.65;5.35;;;14.50;99.90;;;;;;7332674;32;20126;-56
2023/05/23 04:45:18;;;;;;;10.68;5.15;;;14.40;99.90;;;;;;7340583;32;20285;-57
2023/05/23 04:49:21;;;;;;;11.02;6.03;;;14.50;99.90;;;;;;7340843;32;20674;-57
2023/05/23 04:53:23;;;;;;;12.18;6.68;;;14.50;99.90;;;;;;7315110;32;20228;-58
2023/05/23 04:57:25;;;;;;;11.93;6.55;;;14.60;99.90;;;;;;7313425;32;20290;-58
2023/05/23 05:01:27;;;;;;;10.25;6.40;;;14.50;99.90;;;;;;7324672;32;20408;-58
2023/05/23 05:05:29;;;;;;;11.18;6.57;;;14.70;99.90;;;;;;7334036;32;20205;-58
2023/05/23 05:09:31;;;;;;;12.30;7.60;;;14.70;99.90;;;;;;7333575;32;20604;-57
2023/05/23 05:13:32;;;;;;;11.30;8.10;;;14.60;99.90;;;;;;7327187;32;20154;-57
2023/05/23 05:17:36;;;;;;;13.52;8.73;;;14.60;99.90;;;;;;7322626;32;20419;-56
2023/05/23 05:21:37;;;;;;;12.63;8.05;;;14.60;99.90;;;;;;7329737;32;20258;-56
2023/05/23 05:25:40;;;;;;;10.65;7.37;;;14.60;99.90;;;;;;7331428;32;20226;-57
2023/05/23 05:29:42;;;;;;;13.73;7.97;;;14.50;99.90;;;;;;7333844;32;20108;-58
2023/05/23 05:33:44;;;;;;;11.73;8.40;;;14.50;99.90;;;;;;7328910;32;20650;-57
2023/05/23 05:37:46;;;;;;;10.45;7.80;;;14.40;99.90;;;;;;7334323;32;20120;-57
2023/05/23 05:41:48;;;;;;;12.45;9.45;;;14.40;99.90;;;;;;7323152;32;20134;-57
2023/05/23 05:45:50;;;;;;;12.80;8.75;;;14.30;99.90;;;;;;7331715;32;20139;-57
2023/05/23 05:49:52;;;;;;;15.52;9.40;;;14.40;99.90;;;;;;7327515;32;21192;-58
2023/05/23 05:53:53;;;;;;;16.20;8.68;;;14.40;99.90;;;;;;7330843;32;20514;-57
2023/05/23 05:57:55;;;;;;;12.93;8.68;;;14.40;99.90;;;;;;7334304;32;20316;-58
2023/05/23 06:01:57;;;;;;;13.82;9.40;;;14.40;99.90;;;;;;7331539;32;20301;-58
2023/05/23 06:05:59;;;;;;;13.90;10.70;;;14.50;99.90;;;;;;7323842;32;20129;-56
2023/05/23 06:10:02;;;;;;;12.93;9.60;;;14.50;99.90;;;;;;7329977;32;20587;-57
2023/05/23 06:14:04;;;;;;;15.52;9.07;;;14.50;99.90;;;;;;7327313;32;20135;-56
2023/05/23 06:18:06;;;;;;;13.70;8.35;;;14.60;99.90;;;;;;7321393;32;20192;-57
2023/05/23 06:22:08;;;;;;;10.98;7.78;;;14.60;99.90;;;;;;7323844;32;20310;-56
2023/05/23 06:26:10;;;;;;;15.57;8.13;;;14.40;99.90;;;;;;7330533;32;20092;-58
2023/05/23 06:30:12;;;;;;;12.90;8.13;;;14.50;99.90;;;;;;7338364;32;20152;-58
2023/05/23 06:34:15;;;;;;;11.63;7.97;;;14.60;99.90;;;;;;7315998;32;20107;-58
2023/05/23 06:38:17;;;;;;;12.02;8.02;;;14.70;99.90;;;;;;7330733;32;20150;-56
2023/05/23 06:42:19;;;;;;;15.60;8.65;;;14.60;99.90;;;;;;7332193;32;20134;-56
2023/05/23 06:46:20;;;;;;;17.08;9.07;;;14.60;99.90;;;;;;7326990;32;20755;-56
2023/05/23 06:50:23;;;;;;;15.27;9.00;;;14.60;99.90;;;;;;7338822;32;20157;-57
2023/05/23 06:54:24;;;;;;;15.20;9.38;;;14.60;99.90;;;;;;7338536;32;20115;-56
2023/05/23 06:58:26;;;;;;;12.93;8.05;;;14.60;99.90;;;;;;7333106;32;20832;-57
2023/05/23 07:02:28;;;;;;;13.52;6.75;;;14.60;99.90;;;;;;7329663;32;20107;-57
2023/05/23 07:06:30;;;;;;;11.48;7.35;;;14.60;99.90;;;;;;7321841;32;20718;-57
2023/05/23 07:10:34;;;;;;;13.65;7.75;;;14.50;99.90;;;;;;7333080;32;20517;-58
2023/05/23 07:14:37;;;;;;;12.50;7.62;;;14.60;99.90;;;;;;7328741;32;20145;-56
2023/05/23 07:18:38;;;;;;;11.70;7.87;;;14.60;99.90;;;;;;7320164;32;20099;-56
2023/05/23 07:22:40;;;;;;;14.15;8.13;;;14.70;99.90;;;;;;7320325;32;20524;-58
2023/05/23 07:26:42;;;;;;;17.40;8.45;;;14.60;99.90;;;;;;7334819;32;20107;-58
2023/05/23 07:30:45;;;;;;;15.05;8.88;;;14.70;99.90;;;;;;7324188;32;20538;-58
2023/05/23 07:34:46;;;;;;;15.60;7.03;;;14.60;99.90;;;;;;7322321;32;20214;-58
2023/05/23 07:38:48;;;;;;;11.82;7.55;;;14.60;99.90;;;;;;7325087;32;20668;-59
2023/05/23 07:42:52;;;;;;;13.60;7.90;;;14.50;99.90;;;;;;7332276;32;20114;-57
2023/05/23 07:46:53;;;;;;;12.27;7.47;;;14.60;99.90;;;;;;7326435;32;20111;-58
2023/05/23 07:50:55;;;;;;;12.73;7.82;;;14.50;99.90;;;;;;7327119;32;20127;-59
2023/05/23 07:54:58;;;;;;;15.02;8.55;;;14.50;99.90;;;;;;7322277;32;20116;-57
2023/05/23 07:59:00;;;;;;;17.67;9.10;;;14.50;99.90;;;;;;7323826;32;20122;-57
2023/05/23 08:03:03;;;;;;;18.52;9.35;;;14.40;99.90;;;;;;7325723;32;20513;-58
2023/05/23 08:07:07;;;;;;;16.25;7.87;;;14.50;99.90;;;;;;7326513;32;20116;-57
2023/05/23 08:11:09;;;;;;;15.35;8.40;;;14.50;99.90;;;;;;7319158;32;20245;-56
2023/05/23 08:15:11;;;;;;;17.45;9.63;;;14.50;99.90;;;;;;7331917;32;20531;-56
2023/05/23 08:19:12;;;;;;;20.98;9.90;;;14.40;99.90;;;;;;7332242;32;20095;-57
2023/05/23 08:23:16;;;;;;;19.08;11.52;;;14.40;99.90;;;;;;7327550;32;20233;-56
2023/05/23 08:27:18;;;;;;;17.65;10.10;;;14.20;99.90;;;;;;7333960;32;20111;-56
2023/05/23 08:31:20;;;;;;;17.42;11.57;;;14.10;99.90;;;;;;7338457;32;20118;-56
2023/05/23 08:35:23;;;;;;;27.58;18.85;;;14.10;99.90;;;;;;7331803;32;20266;-57
2023/05/23 08:39:24;;;;;;;29.60;18.20;;;14.10;99.90;;;;;;7324891;32;20250;-56
2023/05/23 08:43:27;;;;;;;27.15;18.95;;;14.00;99.90;;;;;;7333916;32;20194;-57
2023/05/23 08:47:34;;;;;;;24.25;12.80;;;14.00;99.90;;;;;;7330880;32;20181;-57
2023/05/23 08:51:36;;;;;;;21.53;14.30;;;13.80;99.90;;;;;;7330865;32;20664;-56
2023/05/23 08:55:39;;;;;;;29.58;16.77;;;13.50;99.90;;;;;;7331797;32;20195;-57
2023/05/23 08:59:42;;;;;;;27.40;16.37;;;13.50;99.90;;;;;;7338471;32;20329;-56
2023/05/23 09:03:44;;;;;;;29.95;18.33;;;13.30;99.90;;;;;;7329093;32;20188;-57
2023/05/23 09:07:46;;;;;;;26.83;16.52;;;13.30;99.90;;;;;;7332266;32;20095;-58
2023/05/23 09:11:49;;;;;;;25.58;16.08;;;13.20;99.90;;;;;;7320656;32;20286;-57
2023/05/23 09:16:08;;;;;;;29.75;17.90;;;13.20;99.90;;;;;;7321521;32;20182;-58
2023/05/23 09:20:15;;;;;;;29.02;19.25;;;13.20;99.90;;;;;;7324726;32;20185;-57
2023/05/23 09:24:18;;;;;;;33.92;21.40;;;13.30;99.90;;;;;;7330596;32;20226;-57
2023/05/23 09:28:20;;;;;;;31.77;24.90;;;13.40;99.90;;;;;;7328310;32;20473;-56
2023/05/23 09:32:22;;;;;;;35.20;24.63;;;13.30;99.90;;;;;;7317738;32;20099;-57
2023/05/23 09:36:28;;;;;;;29.45;20.23;;;13.30;99.90;;;;;;7322095;32;20104;-57
2023/05/23 09:40:31;;;;;;;34.37;28.30;;;13.40;99.90;;;;;;7324532;32;20822;-56
2023/05/23 09:44:41;;;;;;;39.53;26.83;;;13.30;99.90;;;;;;7336484;32;20114;-57
2023/05/23 09:48:52;;;;;;;25.85;17.75;;;13.20;99.90;;;;;;7331070;32;20107;-56
2023/05/23 09:52:54;;;;;;;21.27;13.57;;;13.30;99.90;;;;;;7319329;32;20111;-56
2023/05/23 09:56:59;;;;;;;18.45;11.75;;;13.40;99.90;;;;;;7320449;32;20494;-56
2023/05/23 10:01:03;;;;;;;24.35;14.65;;;13.30;99.90;;;;;;7330015;32;20491;-59
2023/05/23 10:05:11;;;;;;;23.87;14.55;;;13.40;99.90;;;;;;7310782;32;20115;-57
2023/05/23 10:09:17;;;;;;;22.65;13.65;;;13.20;99.90;;;;;;7326639;32;20262;-58
2023/05/23 10:13:20;;;;;;;28.45;14.73;;;13.10;99.90;;;;;;7316078;32;20268;-58
2023/05/23 10:17:27;;;;;;;23.95;14.45;;;13.20;99.90;;;;;;7322077;32;20238;-58
2023/05/23 10:21:31;;;;;;;;;;;13.20;99.90;;;;;;7318504;32;20124;-58
2023/05/23 10:25:35;;;;;;;28.87;19.83;;;13.00;99.90;;;;;;7334000;32;20144;-59
2023/05/23 10:29:37;;;;;;;36.20;25.98;;;13.00;99.90;;;;;;7328667;32;20226;-58
2023/05/23 10:33:46;;;;;;;31.80;24.37;;;13.00;99.90;;;;;;7331477;32;20209;-58
2023/05/23 10:38:12;;;;;;;35.22;23.42;;;13.10;99.90;;;;;;7326033;32;20162;-59
2023/05/23 10:42:41;;;;;;;33.75;24.45;;;13.10;99.90;;;;;;7330311;32;20276;-59
2023/05/23 10:46:53;;;;;;;29.63;21.02;;;13.20;99.90;;;;;;7325669;32;20096;-60
2023/05/23 10:51:08;;;;;;;26.50;17.27;;;13.40;99.90;;;;;;7326382;32;20125;-60
2023/05/23 10:55:14;;;;;;;14.27;8.20;;;13.60;99.90;;;;;;7326246;32;20192;-59
2023/05/23 10:59:23;;;;;;;14.80;8.60;;;14.00;99.90;;;;;;7332988;32;20682;-61
2023/05/23 11:03:50;;;;;;;11.05;6.07;;;14.70;99.90;;;;;;7335669;32;20103;-61
2023/05/23 11:08:15;;;;;;;11.45;5.93;;;14.90;99.90;;;;;;7312003;32;20509;-60
2023/05/23 11:12:37;;;;;;;10.50;6.05;;;15.00;99.90;;;;;;7330559;32;20162;-58
2023/05/23 11:16:44;;;;;;;11.05;5.72;;;14.90;99.90;;;;;;7329547;32;20102;-58
2023/05/23 11:20:46;;;;;;;12.32;6.43;;;14.90;99.90;;;;;;7337948;32;20284;-58
2023/05/23 11:24:52;;;;;;;9.35;6.32;;;14.90;99.90;;;;;;7331521;32;20705;-55
2023/05/23 11:28:58;;;;;;;14.32;7.10;;;14.70;99.90;;;;;;7312583;32;20111;-58
2023/05/23 11:32:59;;;;;;;12.93;7.78;;;14.70;99.90;;;;;;7330238;32;20223;-58
2023/05/23 11:37:01;;;;;;;15.52;5.75;;;14.80;99.90;;;;;;7334304;32;20201;-57
2023/05/23 11:41:05;;;;;;;11.68;5.70;;;14.60;99.90;;;;;;7333459;32;20211;-57
2023/05/23 11:45:08;;;;;;;14.87;6.62;;;14.60;99.90;;;;;;7337472;32;20222;-57
2023/05/23 11:49:11;;;;;;;10.65;5.05;;;14.70;99.90;;;;;;7332239;32;20103;-58
2023/05/23 11:53:16;;;;;;;8.48;3.80;;;14.80;99.90;;;;;;7314537;32;20993;-57
2023/05/23 11:57:18;;;;;;;12.82;3.87;;;15.00;99.90;;;;;;7332988;32;20103;-56
2023/05/23 12:01:20;;;;;;;10.15;4.30;;;15.10;99.90;;;;;;7330784;32;20145;-58
2023/05/23 12:05:21;;;;;;;9.40;4.57;;;15.10;99.90;;;;;;7331258;32;20137;-57
2023/05/23 12:09:24;;;;;;;8.98;4.43;;;15.10;99.90;;;;;;7322007;32;20168;-57
2023/05/23 12:13:28;;;;;;;13.85;5.05;;;15.00;99.90;;;;;;7299754;32;20149;-57
2023/05/23 12:17:31;;;;;;;14.63;5.47;;;14.90;99.90;;;;;;7330728;32;20127;-57
2023/05/23 12:21:45;;;;;;;15.85;5.35;;;14.80;99.90;;;;;;7338914;32;20186;-57
2023/05/23 12:25:51;;;;;;;16.23;4.62;;;15.10;99.90;;;;;;7333432;32;20183;-57
2023/05/23 12:30:08;;;;;;;18.27;7.27;;;15.80;99.90;;;;;;7334487;32;20533;-55
2023/05/23 12:34:11;;;;;;;13.37;5.07;;;16.30;99.90;;;;;;7331657;32;20237;-56
2023/05/23 12:38:16;;;;;;;12.60;4.47;;;16.20;99.90;;;;;;7331759;32;20722;-57
2023/05/23 12:42:18;;;;;;;13.25;4.15;;;16.10;99.90;;;;;;7330394;32;20112;-55
2023/05/23 12:46:21;;;;;;;31.25;9.57;;;17.10;99.90;;;;;;7332030;32;20153;-56
2023/05/23 12:50:22;;;;;;;9.68;5.22;;;18.10;99.90;;;;;;7327409;32;20202;-56
2023/05/23 12:54:25;;;;;;;13.25;5.78;;;18.00;99.90;;;;;;7330517;32;20640;-56
2023/05/23 12:58:27;;;;;;;15.82;6.62;;;17.60;99.90;;;;;;7329707;32;20217;-56
2023/05/23 13:02:32;;;;;;;14.20;5.05;;;17.80;99.90;;;;;;7329730;32;20594;-56
2023/05/23 13:06:34;;;;;;;15.15;7.07;;;18.20;99.90;;;;;;7329130;32;20186;-56
2023/05/23 13:10:35;;;;;;;16.77;5.10;;;17.90;99.90;;;;;;7321890;32;20107;-56
2023/05/23 13:14:37;;;;;;;19.23;5.97;;;17.60;99.90;;;;;;7335061;32;20300;-56
2023/05/23 13:18:39;;;;;;;15.07;5.30;;;17.30;99.90;;;;;;7328513;32;20146;-56
2023/05/23 13:22:41;;;;;;;12.40;4.10;;;17.60;99.90;;;;;;7326493;32;20831;-57
2023/05/23 13:26:43;;;;;;;10.73;3.80;;;17.80;99.90;;;;;;7332089;32;20781;-57
2023/05/23 13:30:45;;;;;;;10.40;3.15;;;17.70;99.90;;;;;;7329921;32;20184;-57
2023/05/23 13:34:48;;;;;;;10.27;3.37;;;17.60;99.90;;;;;;7324396;32;20547;-56
2023/05/23 13:38:50;;;;;;;9.35;3.25;;;17.40;99.90;;;;;;7331948;32;20103;-56
2023/05/23 13:42:52;;;;;;;13.20;4.18;;;17.60;99.90;;;;;;7343560;32;20139;-56
2023/05/23 13:46:54;;;;;;;12.98;4.93;;;17.70;99.90;;;;;;7342800;32;20126;-56
2023/05/23 13:50:56;;;;;;;15.57;8.95;;;17.40;99.90;;;;;;7318851;32;20095;-57
2023/05/23 13:54:59;;;;;;;25.75;15.48;;;17.20;99.90;;;;;;7313691;32;20197;-57
2023/05/23 13:59:01;;;;;;;12.13;5.00;;;17.10;99.90;;;;;;7332387;32;20533;-57
2023/05/23 14:03:06;;;;;;;12.37;4.85;;;17.00;99.90;;;;;;7326431;32;20427;-57
2023/05/23 14:07:07;;;;;;;14.13;5.68;;;17.10;99.90;;;;;;7327705;32;20293;-57
2023/05/23 14:11:10;;;;;;;11.80;5.12;;;17.30;99.90;;;;;;7323689;32;20230;-57
2023/05/23 14:15:12;;;;;;;11.82;4.18;;;17.80;99.90;;;;;;7334261;32;20103;-57
2023/05/23 14:19:14;;;;;;;17.05;6.15;;;17.50;99.90;;;;;;7327370;32;20225;-58
2023/05/23 14:23:16;;;;;;;15.25;3.75;;;17.20;99.90;;;;;;7332636;32;20152;-58
2023/05/23 14:27:18;;;;;;;21.10;7.05;;;17.00;99.90;;;;;;7340755;32;20099;-57
2023/05/23 14:31:21;;;;;;;13.52;4.35;;;16.90;99.90;;;;;;7338072;32;20222;-57
2023/05/23 14:35:24;;;;;;;15.18;4.05;;;17.30;99.90;;;;;;7315202;32;20125;-58
2023/05/23 14:39:27;;;;;;;13.23;3.22;;;17.30;99.90;;;;;;7333529;32;20144;-56
2023/05/23 14:43:29;;;;;;;12.02;3.72;;;17.10;99.90;;;;;;7316087;32;20313;-55
2023/05/23 14:47:31;;;;;;;10.73;3.50;;;18.10;99.90;;;;;;7327178;32;20104;-57
2023/05/23 14:51:33;;;;;;;11.18;3.30;;;18.80;99.90;;;;;;7329394;32;20573;-57
2023/05/23 14:55:49;;;;;;;8.60;3.45;;;18.50;99.90;;;;;;7337957;32;20254;-57
2023/05/23 14:59:51;;;;;;;11.25;2.83;;;17.90;99.90;;;;;;7334629;32;20147;-57
2023/05/23 15:03:53;;;;;;;16.95;3.78;;;18.00;99.90;;;;;;7319480;32;20122;-57
2023/05/23 15:07:55;;;;;;;9.18;3.30;;;18.60;99.90;;;;;;7331331;32;20103;-58
2023/05/23 15:11:57;;;;;;;15.98;3.47;;;18.80;99.90;;;;;;7319688;32;20126;-57
2023/05/23 15:15:59;;;;;;;11.68;3.20;;;18.80;99.90;;;;;;7325704;32;20186;-56
2023/05/23 15:20:01;;;;;;;13.57;2.60;;;18.20;99.90;;;;;;7326449;32;20184;-56
2023/05/23 15:24:08;;;;;;;11.55;3.47;;;18.00;99.90;;;;;;7337475;32;20106;-56
2023/05/23 15:28:09;;;;;;;11.65;3.22;;;18.20;99.90;;;;;;7331996;32;20150;-56
2023/05/23 15:32:14;;;;;;;13.90;3.15;;;18.50;99.90;;;;;;7333471;32;20106;-57
2023/05/23 15:36:16;;;;;;;11.80;3.05;;;18.20;99.90;;;;;;7332673;32;20108;-56
2023/05/23 15:40:20;;;;;;;11.65;3.83;;;17.60;99.90;;;;;;7330168;32;20373;-56
2023/05/23 15:44:22;;;;;;;13.75;3.17;;;17.10;99.90;;;;;;7336830;32;20122;-56
2023/05/23 15:48:23;;;;;;;10.90;3.45;;;16.50;99.90;;;;;;7331924;32;20551;-56
2023/05/23 15:52:25;;;;;;;10.38;2.72;;;16.30;99.90;;;;;;7335467;32;20100;-57
2023/05/23 15:56:27;;;;;;;8.82;2.72;;;16.40;99.90;;;;;;7333232;32;20182;-56
2023/05/23 16:00:29;;;;;;;9.43;2.78;;;16.40;99.90;;;;;;7332356;32;20104;-56
2023/05/23 16:04:31;;;;;;;10.63;2.90;;;16.50;99.90;;;;;;7329798;32;20114;-55
2023/05/23 16:08:33;;;;;;;13.13;3.45;;;16.50;99.90;;;;;;7315697;32;20108;-56
2023/05/23 16:12:35;;;;;;;11.60;2.67;;;16.40;99.90;;;;;;7325554;32;20126;-57
2023/05/23 16:16:37;;;;;;;10.00;2.67;;;16.20;99.90;;;;;;7318530;32;20122;-56
2023/05/23 16:20:39;;;;;;;17.37;2.85;;;15.90;99.90;;;;;;7335880;32;20107;-56
2023/05/23 16:24:41;;;;;;;14.10;2.87;;;16.00;99.90;;;;;;7337276;32;20218;-57
2023/05/23 16:28:43;;;;;;;11.15;2.60;;;15.90;99.90;;;;;;7333823;32;20807;-57
2023/05/23 16:32:44;;;;;;;12.35;3.30;;;15.70;99.90;;;;;;7334736;32;20461;-57
2023/05/23 16:36:46;;;;;;;13.25;2.97;;;15.60;99.90;;;;;;7321588;32;20170;-57
2023/05/23 16:40:48;;;;;;;10.60;2.75;;;15.60;99.90;;;;;;7333329;32;20320;-53
2023/05/23 16:44:50;;;;;;;11.38;2.65;;;15.40;99.90;;;;;;7334422;32;20163;-56
2023/05/23 16:48:53;;;;;;;11.98;2.60;;;15.50;99.90;;;;;;7331539;32;20118;-57
2023/05/23 16:52:54;;;;;;;8.40;2.58;;;15.40;99.90;;;;;;7331973;32;20844;-57
2023/05/23 16:57:00;;;;;;;13.77;2.83;;;15.50;99.90;;;;;;7325993;32;20226;-56
2023/05/23 17:01:02;;;;;;;9.88;2.12;;;15.50;99.90;;;;;;7310621;32;20283;-57
2023/05/23 17:05:04;;;;;;;11.82;2.25;;;15.30;99.90;;;;;;7328027;32;20491;-56
2023/05/23 17:09:06;;;;;;;13.98;3.00;;;15.00;99.90;;;;;;7324571;32;20174;-56
2023/05/23 17:13:07;;;;;;;13.13;3.05;;;15.00;99.90;;;;;;7322693;32;20263;-56
2023/05/23 17:17:09;;;;;;;11.30;2.42;;;15.00;99.90;;;;;;7324752;32;20134;-56
2023/05/23 17:21:11;;;;;;;8.77;2.47;;;14.90;99.90;;;;;;7331849;32;20126;-56
2023/05/23 17:25:13;;;;;;;14.45;4.87;;;14.90;99.90;;;;;;7327988;32;20547;-56
2023/05/23 17:29:16;;;;;;;13.00;2.22;;;14.80;99.90;;;;;;7306164;32;20290;-56
2023/05/23 17:33:18;;;;;;;29.73;20.65;;;14.70;99.90;;;;;;7331388;32;20119;-56
2023/05/23 17:37:20;;;;;;;24.33;11.82;;;14.70;99.90;;;;;;7329037;32;20257;-57
2023/05/23 17:41:22;;;;;;;16.05;5.03;;;14.50;99.90;;;;;;7328125;32;20236;-57
2023/05/23 17:45:24;;;;;;;23.83;11.68;;;14.40;99.90;;;;;;7324748;32;22755;-57
2023/05/23 17:49:26;;;;;;;16.35;4.22;;;14.20;99.90;;;;;;7322989;32;20191;-57
2023/05/23 17:53:28;;;;;;;11.15;2.65;;;14.10;99.90;;;;;;7327563;32;20215;-58
2023/05/23 17:57:30;;;;;;;13.68;3.17;;;14.10;99.90;;;;;;7323593;32;20095;-57
2023/05/23 18:01:32;;;;;;;20.80;16.08;;;14.00;99.90;;;;;;7320644;32;20450;-58
2023/05/23 18:05:34;;;;;;;9.25;2.47;;;13.90;99.90;;;;;;7314337;32;20123;-56
2023/05/23 18:09:36;;;;;;;12.45;2.53;;;13.80;99.90;;;;;;7328819;32;20783;-57
2023/05/23 18:13:38;;;;;;;11.43;3.00;;;13.60;99.90;;;;;;7324789;32;20212;-57
2023/05/23 18:17:40;;;;;;;6.68;1.75;;;13.70;99.90;;;;;;7329874;32;20144;-56
2023/05/23 18:21:42;;;;;;;14.40;2.70;;;13.70;99.90;;;;;;7333656;32;20155;-57
2023/05/23 18:25:44;;;;;;;12.70;2.50;;;13.70;99.90;;;;;;7326155;32;20168;-56
2023/05/23 18:29:45;;;;;;;11.43;2.17;;;13.60;99.90;;;;;;7333442;32;20457;-56
2023/05/23 18:33:47;;;;;;;9.45;2.70;;;13.60;99.90;;;;;;7332138;32;20740;-56
2023/05/23 18:37:49;;;;;;;9.45;2.10;;;13.30;99.90;;;;;;7336463;32;20107;-57
2023/05/23 18:41:51;;;;;;;6.97;2.08;;;13.30;99.90;;;;;;7328490;32;20830;-56
2023/05/23 18:45:53;;;;;;;8.27;1.98;;;13.20;99.90;;;;;;7326005;32;20115;-57
2023/05/23 18:49:55;;;;;;;12.37;2.33;;;13.20;99.90;;;;;;7332842;32;20322;-56
2023/05/23 18:53:57;;;;;;;10.52;2.20;;;13.10;99.90;;;;;;7326330;32;20434;-56
2023/05/23 18:57:59;;;;;;;8.65;2.20;;;13.00;99.90;;;;;;7326435;32;20323;-56
2023/05/23 19:02:01;;;;;;;13.20;3.80;;;12.90;99.90;;;;;;7325230;32;20250;-53
2023/05/23 19:06:03;;;;;;;12.05;2.37;;;12.90;99.90;;;;;;7331639;32;20122;-56
2023/05/23 19:10:05;;;;;;;8.90;2.12;;;12.80;99.90;;;;;;7330480;32;20127;-57
2023/05/23 19:14:07;;;;;;;7.40;2.03;;;12.70;99.90;;;;;;7332018;32;20202;-56
2023/05/23 19:18:09;;;;;;;9.43;2.33;;;12.60;99.90;;;;;;7330108;32;20260;-57
2023/05/23 19:22:11;;;;;;;9.55;2.28;;;12.40;99.90;;;;;;7328884;32;20291;-56
2023/05/23 19:26:13;;;;;;;11.65;2.00;;;12.40;99.90;;;;;;7328722;32;20154;-56
2023/05/23 19:30:15;;;;;;;12.02;2.87;;;12.20;99.90;;;;;;7330594;32;20117;-56
2023/05/23 19:34:17;;;;;;;15.52;4.03;;;12.10;99.90;;;;;;7330390;32;20125;-56
2023/05/23 19:38:19;;;;;;;9.88;2.70;;;12.10;99.90;;;;;;7336510;32;20895;-56
2023/05/23 19:42:21;;;;;;;12.43;5.10;;;11.90;99.90;;;;;;7334931;32;20132;-55
2023/05/23 19:46:22;;;;;;;13.75;3.45;;;11.90;99.90;;;;;;7332297;32;20122;-55
2023/05/23 19:50:24;;;;;;;10.82;2.58;;;11.90;99.90;;;;;;7328870;32;20134;-55
2023/05/23 19:54:26;;;;;;;10.27;2.62;;;11.80;99.90;;;;;;7321154;32;20099;-54
2023/05/23 19:58:28;;;;;;;8.68;2.33;;;11.70;99.90;;;;;;7326129;32;20226;-55
2023/05/23 20:02:30;;;;;;;23.90;8.18;;;11.60;99.90;;;;;;7328862;32;20143;-55
2023/05/23 20:06:32;;;;;;;14.55;4.10;;;11.60;99.90;;;;;;7332059;32;20154;-55
2023/05/23 20:10:34;;;;;;;10.27;2.25;;;11.50;99.90;;;;;;7337990;32;20111;-55
2023/05/23 20:14:36;;;;;;;15.95;2.50;;;11.60;99.90;;;;;;7329615;32;20103;-56
2023/05/23 20:18:38;;;;;;;11.63;2.35;;;11.60;99.90;;;;;;7337587;32;20560;-55
2023/05/23 20:22:40;;;;;;;14.90;2.10;;;11.50;99.90;;;;;;7337632;32;20175;-55
2023/05/23 20:26:41;;;;;;;9.50;3.37;;;11.40;99.90;;;;;;7333747;32;20095;-56
2023/05/23 20:30:43;;;;;;;11.82;3.08;;;11.40;99.90;;;;;;7331488;32;20124;-54
2023/05/23 20:34:45;;;;;;;14.15;2.20;;;11.30;99.90;;;;;;7331069;32;20246;-55
2023/05/23 20:38:47;;;;;;;9.77;2.05;;;11.30;99.90;;;;;;7333298;32;20890;-55
2023/05/23 20:42:49;;;;;;;10.13;2.28;;;11.20;99.90;;;;;;7329805;32;20263;-55
2023/05/23 20:46:51;;;;;;;17.05;5.95;;;11.10;99.90;;;;;;7334083;32;20115;-54
2023/05/23 20:50:53;;;;;;;15.25;2.00;;;11.10;99.90;;;;;;7326479;32;20210;-55